createdAt,value
2023-11-21T00:00:18.458Z,15.50
2023-11-21T00:03:08.181Z,14.90
2023-11-21T00:05:36.984Z,15.70
2023-11-21T00:08:07.728Z,13.90
2023-11-21T00:10:36.683Z,14.80
2023-11-21T00:13:05.089Z,14.70
2023-11-21T00:15:33.391Z,14.20
2023-11-21T00:18:01.758Z,16.00
2023-11-21T00:20:30.050Z,14.60
2023-11-21T00:22:58.557Z,14.30
2023-11-21T00:25:29.934Z,13.70
2023-11-21T00:27:58.464Z,14.00
2023-11-21T00:30:27.021Z,13.80
2023-11-21T00:32:56.289Z,14.60
2023-11-21T00:35:24.609Z,14.30
2023-11-21T00:37:54.699Z,14.00
2023-11-21T00:40:23.820Z,14.60
2023-11-21T00:42:54.123Z,14.40
2023-11-21T00:45:22.711Z,14.80
2023-11-21T00:47:51.442Z,15.10
2023-11-21T00:50:21.437Z,14.80
2023-11-21T00:52:50.020Z,15.20
2023-11-21T00:55:19.535Z,14.70
2023-11-21T00:57:47.954Z,14.80
2023-11-21T01:00:18.633Z,15.10
2023-11-21T01:02:47.139Z,13.40
2023-11-21T01:05:16.188Z,12.90
2023-11-21T01:07:44.829Z,12.40
2023-11-21T01:10:14.086Z,12.90
2023-11-21T01:12:44.443Z,12.90
2023-11-21T01:15:15.764Z,11.80
2023-11-21T01:17:44.329Z,12.70
2023-11-21T01:20:15.336Z,12.40
2023-11-21T01:22:47.084Z,12.90
2023-11-21T01:25:15.991Z,11.10
2023-11-21T01:27:45.640Z,11.90
2023-11-21T01:30:14.589Z,11.20
2023-11-21T01:32:43.575Z,10.80
2023-11-21T01:35:12.168Z,11.90
2023-11-21T01:37:41.076Z,12.90
2023-11-21T01:40:16.134Z,12.40
2023-11-21T01:42:45.516Z,13.50
2023-11-21T01:45:14.816Z,12.80
2023-11-21T01:47:57.967Z,13.40
2023-11-21T01:50:29.841Z,13.10
2023-11-21T01:53:00.068Z,13.50
2023-11-21T01:55:29.418Z,14.00
2023-11-21T01:58:03.994Z,14.30
2023-11-21T02:00:32.818Z,15.20
2023-11-21T02:03:01.562Z,15.10
2023-11-21T02:05:33.597Z,14.50
2023-11-21T02:08:02.337Z,15.20
2023-11-21T02:10:33.655Z,14.60
2023-11-21T02:13:04.691Z,15.20
2023-11-21T02:15:33.493Z,14.90
2023-11-21T02:18:02.977Z,15.80
2023-11-21T02:20:31.604Z,15.70
2023-11-21T02:23:01.094Z,14.40
2023-11-21T02:25:33.813Z,15.20
2023-11-21T02:28:05.197Z,16.20
2023-11-21T02:30:35.274Z,15.60
2023-11-21T02:33:04.034Z,14.50
2023-11-21T02:35:33.571Z,15.40
2023-11-21T02:38:04.313Z,14.90
2023-11-21T02:40:33.122Z,15.30
2023-11-21T02:43:02.843Z,15.20
2023-11-21T02:45:31.954Z,15.80
2023-11-21T02:48:00.748Z,16.10
2023-11-21T02:50:29.360Z,16.00
2023-11-21T02:53:03.116Z,14.70
2023-11-21T02:55:32.893Z,15.50
2023-11-21T02:58:01.662Z,15.90
2023-11-21T03:00:30.206Z,15.80
2023-11-21T03:02:59.892Z,15.60
2023-11-21T03:05:31.053Z,17.20
2023-11-21T03:07:59.333Z,18.50
2023-11-21T03:10:29.361Z,17.20
2023-11-21T03:13:01.507Z,16.90
2023-11-21T03:15:30.018Z,16.40
2023-11-21T03:17:58.837Z,15.90
2023-11-21T03:20:27.492Z,16.00
2023-11-21T03:22:56.125Z,16.80
2023-11-21T03:25:26.215Z,16.20
2023-11-21T03:27:55.091Z,15.50
2023-11-21T03:30:23.868Z,16.20
2023-11-21T03:32:52.335Z,16.50
2023-11-21T03:35:23.620Z,16.90
2023-11-21T03:37:52.306Z,18.00
2023-11-21T03:40:22.748Z,18.20
2023-11-21T03:42:52.734Z,18.20
2023-11-21T03:45:21.176Z,19.40
2023-11-21T03:47:49.802Z,19.30
2023-11-21T03:50:18.378Z,18.30
2023-11-21T03:52:46.978Z,18.00
2023-11-21T03:55:16.479Z,18.20
2023-11-21T03:57:44.943Z,19.20
2023-11-21T04:36:34.729Z,17.40
2023-11-21T04:39:03.660Z,16.10
2023-11-21T04:41:33.255Z,16.30
2023-11-21T04:44:02.719Z,16.00
2023-11-21T04:46:30.916Z,17.20
2023-11-21T04:48:59.775Z,17.10
2023-11-21T04:51:28.815Z,16.90
2023-11-21T04:53:57.007Z,15.60
2023-11-21T04:56:26.010Z,16.10
2023-11-21T04:58:55.387Z,14.70
2023-11-21T05:01:26.300Z,16.30
2023-11-21T05:03:54.911Z,15.20
2023-11-21T05:06:23.458Z,15.70
2023-11-21T05:08:51.691Z,16.40
2023-11-21T05:11:29.680Z,16.10
2023-11-21T05:14:00.352Z,18.20
2023-11-21T05:16:31.770Z,17.30
2023-11-21T05:19:02.426Z,16.70
2023-11-21T05:21:35.357Z,17.10
2023-11-21T05:24:06.674Z,17.00
2023-11-21T05:26:36.077Z,16.90
2023-11-21T05:29:04.143Z,17.70
2023-11-21T05:31:32.378Z,16.10
2023-11-21T05:34:00.505Z,17.20
2023-11-21T05:36:29.157Z,16.30
2023-11-21T05:38:57.440Z,15.60
2023-11-21T05:41:30.419Z,17.40
2023-11-21T05:43:58.618Z,16.20
2023-11-21T05:46:27.509Z,16.50
2023-11-21T05:48:56.268Z,17.40
2023-11-21T05:51:26.236Z,15.60
2023-11-21T05:53:54.523Z,15.20
2023-11-21T05:56:22.995Z,15.40
2023-11-21T05:58:53.020Z,18.30
2023-11-21T06:01:22.205Z,16.20
2023-11-21T06:03:50.862Z,16.30
2023-11-21T06:06:20.784Z,17.40
2023-11-21T06:08:49.927Z,17.90
2023-11-21T06:11:18.233Z,17.80
2023-11-21T06:13:46.716Z,17.60
2023-11-21T06:16:20.982Z,15.80
2023-11-21T06:22:16.687Z,17.60
2023-11-21T06:24:44.901Z,15.50
2023-11-21T06:27:13.420Z,19.60
2023-11-21T06:29:45.795Z,18.60
2023-11-21T06:32:15.695Z,18.90
2023-11-21T06:34:44.712Z,17.00
2023-11-21T06:37:14.353Z,16.00
2023-11-21T06:39:42.777Z,17.80
2023-11-21T06:42:10.808Z,16.40
2023-11-21T06:44:39.167Z,17.00
2023-11-21T06:47:07.647Z,16.90
2023-11-21T06:49:36.209Z,16.90
2023-11-21T06:52:07.190Z,16.50
2023-11-21T06:54:35.904Z,16.10
2023-11-21T06:57:04.461Z,16.40
2023-11-21T06:59:33.130Z,17.90
2023-11-21T07:02:01.490Z,16.80
2023-11-21T07:04:30.234Z,19.60
2023-11-21T07:06:58.378Z,40.40
2023-11-21T07:09:27.172Z,16.20
2023-11-21T07:11:56.153Z,14.60
2023-11-21T07:14:24.578Z,16.60
2023-11-21T07:16:54.120Z,15.20
2023-11-21T07:19:23.187Z,16.00
2023-11-21T07:21:54.226Z,17.00
2023-11-21T07:24:23.887Z,15.50
2023-11-21T07:26:58.213Z,15.80
2023-11-21T07:29:31.211Z,13.70
2023-11-21T07:31:59.837Z,13.30
2023-11-21T07:34:28.132Z,13.20
2023-11-21T07:36:56.390Z,14.10
2023-11-21T07:39:24.556Z,13.20
2023-11-21T07:41:52.753Z,15.90
2023-11-21T07:44:34.845Z,14.20
2023-11-21T07:47:03.249Z,13.40
2023-11-21T07:49:32.192Z,12.70
2023-11-21T07:52:00.518Z,12.90
2023-11-21T07:54:30.526Z,14.40
2023-11-21T07:56:58.861Z,11.90
2023-11-21T07:59:29.589Z,10.60
2023-11-21T08:01:58.340Z,11.60
2023-11-21T08:04:26.992Z,12.30
2023-11-21T08:06:55.662Z,12.50
2023-11-21T08:09:25.171Z,11.90
2023-11-21T08:11:55.447Z,12.00
2023-11-21T08:14:26.816Z,12.80
2023-11-21T08:16:58.912Z,14.50
2023-11-21T08:19:27.495Z,15.50
2023-11-21T08:21:55.991Z,14.30
2023-11-21T08:24:24.466Z,12.60
2023-11-21T08:26:53.671Z,12.10
2023-11-21T08:29:21.946Z,11.70
2023-11-21T08:31:50.309Z,12.00
2023-11-21T08:34:18.660Z,12.60
2023-11-21T08:36:47.115Z,13.90
2023-11-21T08:39:20.265Z,13.20
2023-11-21T08:41:50.284Z,12.90
2023-11-21T08:44:19.502Z,12.20
2023-11-21T08:46:48.213Z,11.60
2023-11-21T08:49:17.256Z,12.20
2023-11-21T08:51:47.489Z,13.00
2023-11-21T08:54:15.655Z,14.30
2023-11-21T08:56:45.576Z,12.90
2023-11-21T08:59:16.218Z,12.10
2023-11-21T09:01:44.537Z,11.70
2023-11-21T09:04:14.111Z,11.10
2023-11-21T09:06:42.383Z,11.00
2023-11-21T09:09:14.159Z,12.60
2023-11-21T09:11:42.489Z,11.30
2023-11-21T09:14:11.590Z,15.00
2023-11-21T09:16:41.455Z,14.60
2023-11-21T09:19:10.000Z,14.30
2023-11-21T09:21:38.216Z,13.60
2023-11-21T09:24:06.976Z,13.40
2023-11-21T09:26:36.151Z,13.00
2023-11-21T09:29:04.698Z,11.50
2023-11-21T09:31:35.256Z,13.40
2023-11-21T09:34:08.332Z,12.80
2023-11-21T09:36:36.753Z,13.10
2023-11-21T09:39:08.394Z,13.70
2023-11-21T09:41:47.083Z,14.00
2023-11-21T09:44:28.924Z,13.20
2023-11-21T09:47:03.446Z,11.70
2023-11-21T09:49:37.424Z,12.60
2023-11-21T09:52:09.316Z,12.60
2023-11-21T09:54:41.173Z,13.80
2023-11-21T09:57:10.559Z,13.80
2023-11-21T09:59:39.584Z,13.30
2023-11-21T10:02:28.850Z,13.00
2023-11-21T10:04:58.094Z,15.50
2023-11-21T10:07:26.604Z,12.50
2023-11-21T10:09:57.106Z,11.40
2023-11-21T10:12:27.893Z,12.00
2023-11-21T10:15:00.167Z,12.00
2023-11-21T10:17:33.213Z,12.80
2023-11-21T10:20:13.028Z,11.70
2023-11-21T10:22:43.636Z,13.70
2023-11-21T10:25:12.316Z,13.20
2023-11-21T10:27:40.703Z,13.40
2023-11-21T10:30:14.563Z,13.90
2023-11-21T10:32:46.215Z,15.20
2023-11-21T10:35:14.759Z,14.30
2023-11-21T10:37:45.426Z,14.50
2023-11-21T10:40:14.223Z,13.50
2023-11-21T10:42:43.250Z,13.60
2023-11-21T10:45:15.409Z,14.10
2023-11-21T10:47:45.538Z,13.80
2023-11-21T10:50:14.018Z,14.10
2023-11-21T10:52:44.979Z,13.40
2023-11-21T10:55:24.230Z,12.60
2023-11-21T10:57:59.175Z,14.80
2023-11-21T11:00:51.950Z,13.20
2023-11-21T11:03:20.483Z,13.00
2023-11-21T11:06:11.786Z,12.20
2023-11-21T11:08:41.025Z,12.80
2023-11-21T11:11:11.974Z,12.20
2023-11-21T11:13:48.849Z,12.20
2023-11-21T11:16:19.048Z,12.50
2023-11-21T11:18:48.901Z,12.10
2023-11-21T11:21:35.318Z,12.30
2023-11-21T11:24:48.893Z,11.80
2023-11-21T11:27:31.805Z,11.80
2023-11-21T11:30:23.459Z,15.40
2023-11-21T11:33:27.615Z,13.10
2023-11-21T11:36:23.902Z,13.20
